createdAt,value
2018-07-24T00:00:18.158Z,82.85
2018-07-24T00:01:03.509Z,83.56
2018-07-24T00:02:03.533Z,83.37
2018-07-24T00:03:03.560Z,83.28
2018-07-24T00:04:03.583Z,83.52
2018-07-24T00:05:03.607Z,82.94
2018-07-24T00:06:03.636Z,83.81
2018-07-24T00:07:03.660Z,84.29
2018-07-24T00:08:03.683Z,84
2018-07-24T00:09:03.707Z,84.48
2018-07-24T00:11:03.628Z,84.19
2018-07-24T00:12:03.784Z,84.19
2018-07-24T00:13:03.807Z,84
2018-07-24T00:14:03.832Z,84.29
2018-07-24T00:15:03.600Z,83.91
2018-07-24T00:16:18.544Z,84.87
2018-07-24T00:17:03.910Z,84.67
2018-07-24T00:18:03.936Z,84.58
2018-07-24T00:19:03.959Z,86.12
2018-07-24T00:20:03.989Z,85.83
2018-07-24T00:21:04.008Z,86.85
2018-07-24T00:22:04.031Z,86.94
2018-07-24T00:23:04.058Z,87.23
2018-07-24T00:24:04.079Z,86.85
2018-07-24T00:26:03.876Z,86.56
2018-07-24T00:27:04.156Z,86.56
2018-07-24T00:28:03.924Z,86.08
2018-07-24T00:29:04.207Z,86.31
2018-07-24T00:30:04.229Z,86.31
2018-07-24T00:31:04.252Z,87.13
2018-07-24T00:32:18.941Z,86.65
2018-07-24T00:33:04.045Z,87.23
2018-07-24T00:34:04.336Z,87.52
2018-07-24T00:35:04.357Z,87.62
2018-07-24T00:36:04.119Z,88.39
2018-07-24T00:37:04.145Z,88.48
2018-07-24T00:38:04.428Z,88.39
2018-07-24T00:40:04.478Z,88.82
2018-07-24T00:41:04.515Z,88.87
2018-07-24T00:42:04.523Z,89.21
2018-07-24T00:43:04.564Z,89.01
2018-07-24T00:44:04.576Z,89.59
2018-07-24T00:45:04.343Z,89.4
2018-07-24T00:46:04.367Z,89.78
2018-07-24T00:47:19.313Z,90.45
2018-07-24T00:48:04.680Z,90.07
2018-07-24T00:49:04.441Z,90.65
2018-07-24T00:50:04.466Z,90.94
2018-07-24T00:51:04.752Z,90.94
2018-07-24T00:52:04.515Z,90.65
2018-07-24T00:53:04.800Z,91.32
2018-07-24T00:54:04.845Z,91.22
2018-07-24T00:55:04.592Z,91.32
2018-07-24T00:57:04.642Z,91.71
2018-07-24T00:58:04.920Z,91.71
2018-07-24T00:59:04.953Z,91.03
2018-07-24T01:00:04.969Z,91.22
2018-07-24T01:01:04.736Z,90.65
2018-07-24T01:02:05.019Z,90.45
2018-07-24T01:03:05.046Z,90.26
2018-07-24T01:04:05.067Z,90.36
2018-07-24T01:05:05.091Z,90.65
2018-07-24T01:06:05.116Z,90.84
2018-07-24T01:07:05.144Z,90.36
2018-07-24T01:08:05.166Z,90.17
2018-07-24T01:09:05.195Z,90.36
2018-07-24T01:10:05.216Z,89.78
2018-07-24T01:11:05.238Z,90.17
2018-07-24T01:12:05.272Z,91.22
2018-07-24T01:13:05.289Z,91.71
2018-07-24T01:15:05.348Z,91.8
2018-07-24T01:16:05.367Z,91.9
2018-07-24T01:17:05.390Z,91.42
2018-07-24T01:18:05.413Z,91.22
2018-07-24T01:19:20.100Z,90.55
2018-07-24T01:20:05.460Z,91.32
2018-07-24T01:21:05.486Z,91.71
2018-07-24T01:22:05.511Z,91.99
2018-07-24T01:23:05.549Z,93.19
2018-07-24T01:24:05.561Z,93.77
2018-07-24T01:25:05.585Z,94.54
2018-07-24T01:26:05.357Z,94.83
2018-07-24T01:27:05.632Z,95.03
2018-07-24T01:28:05.659Z,95.4
2018-07-24T01:29:05.680Z,95.79
2018-07-24T01:31:05.730Z,95.17
2018-07-24T01:32:05.769Z,95.4
2018-07-24T01:33:05.780Z,95.21
2018-07-24T01:34:05.807Z,94.93
2018-07-24T01:35:20.493Z,94.83
2018-07-24T01:36:05.855Z,94.64
2018-07-24T01:37:05.622Z,93.87
2018-07-24T01:38:05.903Z,93.58
2018-07-24T01:39:05.932Z,92.62
2018-07-24T01:40:06.053Z,92.62
2018-07-24T01:41:05.721Z,92.62
2018-07-24T01:42:06.050Z,92.81
2018-07-24T01:44:06.048Z,93.1
2018-07-24T01:45:06.075Z,92.43
2018-07-24T01:46:05.848Z,92.43
2018-07-24T01:47:05.866Z,93.39
2018-07-24T01:48:06.148Z,94.35
2018-07-24T01:49:06.173Z,94.83
2018-07-24T01:50:06.196Z,95.55
2018-07-24T01:51:20.883Z,95.94
2018-07-24T01:52:06.245Z,96.32
2018-07-24T01:53:06.274Z,96.61
2018-07-24T01:54:06.296Z,96.7
2018-07-24T01:55:06.320Z,97.19
2018-07-24T01:56:06.386Z,96.99
2018-07-24T01:58:06.135Z,97.19
2018-07-24T01:59:06.158Z,97.09
2018-07-24T02:00:06.183Z,96.99
2018-07-24T02:01:06.469Z,96.51
2018-07-24T02:02:06.497Z,95.84
2018-07-24T02:03:06.513Z,96.03
2018-07-24T02:04:06.589Z,95.84
2018-07-24T02:05:06.564Z,95.45
2018-07-24T02:06:06.587Z,95.17
2018-07-24T02:07:21.272Z,95.36
2018-07-24T02:08:06.378Z,94.98
2018-07-24T02:09:06.405Z,95.45
2018-07-24T02:10:06.430Z,94.98
2018-07-24T02:11:06.451Z,95.55
2018-07-24T02:12:06.739Z,95.36
2018-07-24T02:13:06.757Z,95.36
2018-07-24T02:14:06.525Z,95.65
2018-07-24T02:15:06.805Z,95.65
2018-07-24T02:16:06.830Z,95.45
2018-07-24T02:18:06.883Z,96.22
2018-07-24T02:19:06.903Z,95.55
2018-07-24T02:20:06.933Z,95.26
2018-07-24T02:21:06.954Z,95.55
2018-07-24T02:22:21.640Z,95.84
2018-07-24T02:23:07.002Z,96.22
2018-07-24T02:24:07.029Z,95.94
2018-07-24T02:25:06.793Z,96.03
2018-07-24T02:26:07.075Z,96.03
2018-07-24T02:27:06.841Z,96.22
2018-07-24T02:28:07.123Z,96.42
2018-07-24T02:29:07.148Z,96.13
2018-07-24T02:30:06.916Z,96.03
2018-07-24T02:31:07.200Z,96.89
2018-07-24T02:33:07.248Z,98.24
2018-07-24T02:34:07.271Z,97.86
2018-07-24T02:35:07.297Z,98.34
2018-07-24T02:36:07.318Z,97.66
2018-07-24T02:37:07.448Z,98.63
2018-07-24T02:38:07.367Z,98.72
2018-07-24T02:39:07.391Z,98.86
2018-07-24T02:40:07.157Z,99.01
2018-07-24T02:42:07.462Z,98.38
2018-07-24T02:43:07.487Z,99.1
2018-07-24T02:44:07.512Z,98.58
2018-07-24T02:45:07.538Z,98.86
2018-07-24T02:46:07.571Z,98.72
2018-07-24T02:47:07.583Z,99.05
2018-07-24T02:48:07.354Z,99.44
2018-07-24T02:49:07.636Z,99.92
2018-07-24T02:50:07.655Z,99.92
2018-07-24T02:51:07.687Z,99.99
2018-07-24T02:52:07.451Z,99.99
2018-07-24T02:53:07.476Z,99.99
2018-07-24T02:54:22.417Z,99.99
2018-07-24T02:55:07.779Z,99.99
2018-07-24T02:56:07.544Z,99.99
2018-07-24T02:57:07.865Z,99.99
2018-07-24T02:58:07.591Z,99.99
2018-07-24T02:59:07.879Z,99.99
2018-07-24T03:00:07.644Z,99.99
2018-07-24T03:01:07.666Z,99.99
2018-07-24T03:02:07.692Z,99.99
2018-07-24T03:03:07.975Z,99.99
2018-07-24T03:04:07.737Z,99.99
2018-07-24T03:05:08.029Z,99.99
2018-07-24T03:06:08.056Z,99.99
2018-07-24T03:07:07.811Z,99.99
2018-07-24T03:08:08.094Z,99.99
2018-07-24T03:09:07.859Z,99.99
2018-07-24T03:10:22.802Z,99.99
2018-07-24T03:11:07.906Z,99.99
2018-07-24T03:12:08.191Z,99.99
2018-07-24T03:13:07.957Z,99.99
2018-07-24T03:14:08.236Z,99.99
2018-07-24T03:15:08.006Z,99.99
2018-07-24T03:16:08.396Z,99.99
2018-07-24T03:17:08.314Z,99.99
2018-07-24T03:18:08.335Z,99.99
2018-07-24T03:19:08.456Z,99.99
2018-07-24T03:20:08.387Z,99.99
2018-07-24T03:21:08.416Z,99.99
2018-07-24T03:22:08.432Z,99.99
2018-07-24T03:23:08.455Z,99.99
2018-07-24T03:24:08.220Z,99.99
2018-07-24T03:25:08.518Z,99.99
2018-07-24T03:26:23.186Z,99.99
2018-07-24T03:27:08.549Z,99.99
2018-07-24T03:28:08.575Z,99.99
2018-07-24T03:29:08.598Z,99.99
2018-07-24T03:30:08.622Z,99.99
2018-07-24T03:31:08.653Z,99.99
2018-07-24T03:32:08.671Z,99.99
2018-07-24T03:33:08.695Z,99.99
2018-07-24T03:34:08.722Z,99.99
2018-07-24T03:37:08.796Z,99.4
2018-07-24T03:38:08.812Z,98.86
2018-07-24T03:39:08.836Z,99.1
2018-07-24T03:40:08.867Z,99.68
2018-07-24T03:41:08.629Z,98.67
2018-07-24T03:42:23.571Z,98.53
2018-07-24T03:43:08.936Z,98.24
2018-07-24T03:44:08.963Z,98.14
2018-07-24T03:45:09.075Z,98.63
2018-07-24T03:46:09.108Z,97.86
2018-07-24T03:47:09.040Z,97.96
2018-07-24T03:48:09.058Z,97.76
2018-07-24T03:49:09.079Z,97.57
2018-07-24T03:50:09.106Z,97.19
2018-07-24T03:52:09.150Z,96.99
2018-07-24T03:53:09.174Z,96.61
2018-07-24T03:54:08.943Z,96.8
2018-07-24T03:55:09.224Z,96.7
2018-07-24T03:56:08.993Z,96.32
2018-07-24T03:57:23.936Z,96.89
2018-07-24T03:58:09.297Z,96.47
2018-07-24T03:59:09.322Z,96.56
2018-07-24T04:00:09.346Z,97.04
2018-07-24T04:01:09.373Z,97.57
2018-07-24T04:02:09.394Z,97.96
2018-07-24T04:03:09.429Z,98
2018-07-24T04:04:09.455Z,97.62
2018-07-24T04:05:09.467Z,97.71
2018-07-24T04:06:09.489Z,97.14
2018-07-24T04:07:09.520Z,96.66
2018-07-24T04:08:09.542Z,96.56
2018-07-24T04:09:09.564Z,96.17
2018-07-24T04:10:09.594Z,95.79
2018-07-24T04:11:09.615Z,95.7
2018-07-24T04:12:09.637Z,95.31
2018-07-24T04:13:09.662Z,95.5
2018-07-24T04:14:09.685Z,95.4
2018-07-24T04:15:09.709Z,94.88
2018-07-24T04:16:09.737Z,94.83
2018-07-24T04:17:09.758Z,95.07
2018-07-24T04:18:09.781Z,94.68
2018-07-24T04:19:09.836Z,95.45
2018-07-24T04:21:09.861Z,94.68
2018-07-24T04:23:09.905Z,93.63
2018-07-24T04:24:09.926Z,93.05
2018-07-24T04:25:09.953Z,92.47
2018-07-24T04:26:09.983Z,92.52
2018-07-24T04:27:10.001Z,92.23
2018-07-24T04:28:09.769Z,91.75
2018-07-24T04:29:24.711Z,91.46
2018-07-24T04:30:10.076Z,91.75
2018-07-24T04:31:10.200Z,91.56
2018-07-24T04:32:10.125Z,91.08
2018-07-24T04:33:10.155Z,91.27
2018-07-24T04:34:10.175Z,91.27
2018-07-24T04:35:10.201Z,90.59
2018-07-24T04:36:10.225Z,90.98
2018-07-24T04:37:10.247Z,90.79
2018-07-24T04:38:10.013Z,90.89
2018-07-24T04:39:10.294Z,90.73
2018-07-24T04:40:10.077Z,90.45
2018-07-24T04:41:10.087Z,90.16
2018-07-24T04:42:10.368Z,89.97
2018-07-24T04:43:10.495Z,89.68
2018-07-24T04:44:10.416Z,89.78
2018-07-24T04:45:25.106Z,89.49
2018-07-24T04:46:10.465Z,89.58
2018-07-24T04:47:10.489Z,89.39
2018-07-24T04:48:10.516Z,89.01
2018-07-24T04:49:10.546Z,89.2
2018-07-24T04:50:10.565Z,88.81
2018-07-24T04:52:10.356Z,86.59
2018-07-24T04:53:10.639Z,83.01
2018-07-24T04:56:10.717Z,71.92
2018-07-24T04:58:10.767Z,66.34
2018-07-24T04:59:10.534Z,65.33
2018-07-24T05:00:10.560Z,63.32
2018-07-24T05:01:25.507Z,61.51
2018-07-24T05:02:10.613Z,60.57
2018-07-24T05:03:10.650Z,58.78
2018-07-24T05:04:10.940Z,58.13
2018-07-24T05:05:10.969Z,56.86
2018-07-24T05:06:10.987Z,55.75
2018-07-24T05:08:11.044Z,55.38
2018-07-24T05:10:11.113Z,52.83
2018-07-24T05:12:11.166Z,50.24
2018-07-24T05:13:11.248Z,49.97
2018-07-24T05:14:11.234Z,49.19
2018-07-24T05:15:11.261Z,48.92
2018-07-24T05:16:11.294Z,48.04
2018-07-24T05:17:25.989Z,47.57
2018-07-24T05:18:11.097Z,47.3
2018-07-24T05:19:11.132Z,46.81
2018-07-24T05:20:11.425Z,46.03
2018-07-24T05:21:11.453Z,45.47
2018-07-24T05:22:11.488Z,44.48
2018-07-24T05:23:11.263Z,44.78
2018-07-24T05:24:11.559Z,44.02
2018-07-24T05:25:11.587Z,43.62
2018-07-24T05:26:11.620Z,43.15
2018-07-24T05:27:11.658Z,43.15
2018-07-24T05:28:11.695Z,43.62
2018-07-24T05:29:11.466Z,43.27
2018-07-24T05:30:11.756Z,43.27
2018-07-24T05:31:11.791Z,42.33
2018-07-24T05:32:26.490Z,41.64
2018-07-24T05:33:11.961Z,41.67
2018-07-24T05:34:11.896Z,40.01
2018-07-24T05:35:11.929Z,39.44
2018-07-24T05:36:11.972Z,39.07
2018-07-24T05:37:12.002Z,39.17
2018-07-24T05:39:12.071Z,37.15
2018-07-24T05:40:12.108Z,37.47
2018-07-24T05:41:12.240Z,37.93
2018-07-24T05:42:12.177Z,37.63
2018-07-24T05:43:12.215Z,37.15
2018-07-24T05:44:12.250Z,36.76
2018-07-24T05:45:12.288Z,36.78
2018-07-24T05:46:12.320Z,36.78
2018-07-24T05:47:12.358Z,35.5
2018-07-24T05:48:12.400Z,35.15
2018-07-24T05:49:12.429Z,35.75
2018-07-24T05:50:12.468Z,35.14
2018-07-24T05:51:12.508Z,34.58
2018-07-24T05:52:12.541Z,34.59
2018-07-24T05:53:12.674Z,34.5
2018-07-24T05:54:12.611Z,34.66
2018-07-24T05:55:12.459Z,34.18
2018-07-24T05:56:12.683Z,33.82
2018-07-24T05:57:12.824Z,34.2
2018-07-24T05:58:12.761Z,34.58
2018-07-24T05:59:12.798Z,35.64
2018-07-24T06:00:12.836Z,35.24
2018-07-24T06:01:12.614Z,34.86
2018-07-24T06:02:12.909Z,34.06
2018-07-24T06:03:12.945Z,33.61
2018-07-24T06:04:27.648Z,34.38
2018-07-24T06:05:13.027Z,34.28
2018-07-24T06:06:13.066Z,34
2018-07-24T06:07:13.136Z,33.7
2018-07-24T06:08:13.136Z,33.41
2018-07-24T06:09:13.182Z,33.41
2018-07-24T06:10:13.209Z,33.23
2018-07-24T06:11:13.254Z,34.3
2018-07-24T06:12:13.032Z,35.14
2018-07-24T06:14:13.461Z,35.77
2018-07-24T06:15:13.399Z,35.69
2018-07-24T06:16:13.436Z,36.09
2018-07-24T06:17:13.483Z,35.96
2018-07-24T06:18:13.512Z,36.29
2018-07-24T06:19:13.579Z,35.81
2018-07-24T06:20:28.255Z,35.22
2018-07-24T06:21:13.626Z,33.97
2018-07-24T06:22:13.676Z,33.29
2018-07-24T06:23:13.710Z,33.41
2018-07-24T06:24:13.744Z,33.29
2018-07-24T06:25:13.525Z,33
2018-07-24T06:26:13.819Z,34.06
2018-07-24T06:27:13.856Z,34.46
2018-07-24T06:29:13.706Z,33.11
2018-07-24T06:30:13.978Z,33.04
2018-07-24T06:32:14.053Z,32.14
2018-07-24T06:33:14.098Z,31.36
2018-07-24T06:34:14.131Z,31.97
2018-07-24T06:35:14.174Z,33.51
2018-07-24T06:36:28.874Z,33.31
2018-07-24T06:37:13.990Z,32.25
2018-07-24T06:38:14.285Z,31.69
2018-07-24T06:39:14.327Z,31.01
2018-07-24T06:40:14.365Z,31.97
2018-07-24T06:41:14.404Z,31.28
2018-07-24T06:42:14.445Z,30.98
2018-07-24T06:43:14.492Z,31.77
2018-07-24T06:44:14.272Z,31.97
2018-07-24T06:45:14.561Z,31.48
2018-07-24T06:46:14.604Z,31.08
2018-07-24T06:47:14.640Z,30.5
2018-07-24T06:48:14.680Z,30.63
2018-07-24T06:49:14.718Z,30.91
2018-07-24T06:50:14.756Z,30.81
2018-07-24T06:51:14.557Z,30.52
2018-07-24T06:52:29.503Z,31.72
2018-07-24T06:53:14.883Z,32.42
2018-07-24T06:54:14.918Z,33.39
2018-07-24T06:55:15.045Z,32.6
2018-07-24T06:56:14.997Z,32.32
2018-07-24T06:57:14.781Z,32.24
2018-07-24T06:59:15.115Z,31.65
2018-07-24T07:00:15.159Z,31.68
2018-07-24T07:01:15.194Z,30.39
2018-07-24T07:02:15.442Z,30.32
2018-07-24T07:03:15.288Z,30.53
2018-07-24T07:04:15.319Z,30.68
2018-07-24T07:05:15.521Z,30.99
2018-07-24T07:06:15.396Z,30.88
2018-07-24T07:07:30.129Z,30.97
2018-07-24T07:08:15.476Z,31.48
2018-07-24T07:09:15.513Z,31.49
2018-07-24T07:10:15.660Z,30.3
2018-07-24T07:11:15.593Z,30.47
2018-07-24T07:12:15.631Z,30.6
2018-07-24T07:13:15.803Z,30.58
2018-07-24T07:14:15.714Z,31.18
2018-07-24T07:16:15.560Z,30.21
2018-07-24T07:17:15.831Z,30.4
2018-07-24T07:18:15.875Z,31.97
2018-07-24T07:19:15.914Z,33.47
2018-07-24T07:20:15.953Z,33.06
2018-07-24T07:21:16.001Z,33.18
2018-07-24T07:22:16.035Z,33.15
2018-07-24T07:23:16.154Z,32.97
2018-07-24T07:24:16.140Z,31.71
2018-07-24T07:25:15.895Z,31.26
2018-07-24T07:26:16.268Z,32.03
2018-07-24T07:27:16.232Z,31.9
2018-07-24T07:28:16.293Z,31.91
2018-07-24T07:29:16.561Z,31.13
2018-07-24T07:30:16.356Z,31.91
2018-07-24T07:31:16.393Z,31.51
2018-07-24T07:32:16.592Z,31.4
2018-07-24T07:33:16.475Z,31.91
2018-07-24T07:34:16.516Z,30.51
2018-07-24T07:35:16.559Z,30.08
2018-07-24T07:36:16.591Z,29.5
2018-07-24T07:37:16.731Z,29.82
2018-07-24T07:38:16.668Z,29.54
2018-07-24T07:39:31.378Z,28.96
2018-07-24T07:40:16.751Z,28.59
2018-07-24T07:41:16.793Z,28.9
2018-07-24T07:42:16.835Z,29.47
2018-07-24T07:43:16.869Z,28.85
2018-07-24T07:44:16.914Z,29.36
2018-07-24T07:45:17.025Z,29.54
2018-07-24T07:46:16.989Z,28.83
2018-07-24T07:48:17.070Z,30.21
2018-07-24T07:49:16.850Z,30.21
2018-07-24T07:50:16.890Z,29.61
2018-07-24T07:51:17.187Z,30.02
2018-07-24T07:52:17.228Z,30.98
2018-07-24T07:53:17.368Z,32.1
2018-07-24T07:55:32.011Z,32.47
2018-07-24T07:56:17.387Z,32.1
2018-07-24T07:57:17.426Z,32.09
2018-07-24T07:58:17.211Z,31.3
2018-07-24T07:59:17.504Z,30.74
2018-07-24T08:00:17.545Z,30.97
2018-07-24T08:01:17.326Z,31.16
2018-07-24T08:02:17.623Z,30.47
2018-07-24T08:03:17.665Z,30.65
2018-07-24T08:04:17.822Z,30.19
2018-07-24T08:05:17.741Z,29.61
2018-07-24T08:06:17.780Z,29.72
2018-07-24T08:07:17.822Z,29.63
2018-07-24T08:08:17.859Z,29.14
2018-07-24T08:09:17.898Z,29.17
2018-07-24T08:10:17.939Z,29.07
2018-07-24T08:11:32.642Z,28.89
2018-07-24T08:12:18.037Z,29.1
2018-07-24T08:13:18.056Z,28.2
2018-07-24T08:14:18.221Z,26.82
2018-07-24T08:15:18.137Z,27.72
2018-07-24T08:16:18.177Z,28.29
2018-07-24T08:17:18.216Z,28.08
2018-07-24T08:18:18.253Z,28.77
2018-07-24T08:19:18.292Z,29.46
2018-07-24T08:20:18.337Z,29.61
2018-07-24T08:22:18.634Z,30.05
2018-07-24T08:23:18.194Z,31.05
2018-07-24T08:24:18.501Z,31.73
2018-07-24T08:25:18.276Z,32.28
2018-07-24T08:26:18.312Z,32.45
2018-07-24T08:27:33.274Z,34.41
2018-07-24T08:28:18.800Z,34.66
2018-07-24T08:29:18.432Z,34.58
2018-07-24T08:30:18.468Z,34.18
2018-07-24T08:31:18.766Z,33.33
2018-07-24T08:32:18.546Z,34.23
2018-07-24T08:33:18.584Z,34.95
2018-07-24T08:34:18.883Z,35.13
2018-07-24T08:36:18.957Z,32.57
2018-07-24T08:37:18.737Z,33.16
2018-07-24T08:38:19.036Z,32.16
2018-07-24T08:39:19.074Z,31.6
2018-07-24T08:40:19.111Z,31.91
2018-07-24T08:41:19.151Z,32.59
2018-07-24T08:42:33.858Z,33.72
2018-07-24T08:43:19.227Z,33.51
2018-07-24T08:44:19.264Z,34.12
2018-07-24T08:45:19.306Z,32.45
2018-07-24T08:46:19.341Z,32.39
2018-07-24T08:47:19.123Z,31.99
2018-07-24T08:48:19.478Z,31.04
2018-07-24T08:49:19.501Z,31.05
2018-07-24T08:51:19.275Z,32.39
2018-07-24T08:53:19.788Z,33.82
2018-07-24T08:54:19.626Z,33.25
2018-07-24T08:55:20.741Z,32.39
2018-07-24T08:56:19.721Z,32.21
2018-07-24T08:57:19.758Z,30.74
2018-07-24T08:58:19.798Z,31.08
2018-07-24T08:59:19.845Z,30.3
2018-07-24T09:00:19.879Z,28.94
2018-07-24T09:01:19.653Z,28.77
2018-07-24T09:02:19.949Z,27.68
2018-07-24T09:03:20.119Z,28.6
2018-07-24T09:04:20.087Z,28.97
2018-07-24T09:05:20.065Z,28.88
2018-07-24T09:06:20.097Z,28.94
2018-07-24T09:07:20.138Z,29.94
2018-07-24T09:08:20.172Z,29.61
2018-07-24T09:09:20.236Z,29.91
2018-07-24T09:10:20.080Z,30.02
2018-07-24T09:11:20.288Z,29.63
2018-07-24T09:12:20.325Z,28.64
2018-07-24T09:13:20.106Z,28.28
2018-07-24T09:14:35.067Z,28.41
2018-07-24T09:15:20.181Z,28.49
2018-07-24T09:16:20.477Z,29.25
2018-07-24T09:17:20.256Z,29.54
2018-07-24T09:18:20.552Z,29.72
2018-07-24T09:19:20.587Z,30.3
2018-07-24T09:20:20.630Z,30.21
2018-07-24T09:22:20.703Z,30.09
2018-07-24T09:24:20.774Z,30.94
2018-07-24T09:25:20.815Z,30.74
2018-07-24T09:26:20.595Z,30.65
2018-07-24T09:27:20.891Z,30.19
2018-07-24T09:28:20.928Z,30.1
2018-07-24T09:29:21.069Z,30.29
2018-07-24T09:30:35.668Z,29.81
2018-07-24T09:31:21.042Z,30.1
2018-07-24T09:32:21.078Z,30.21
2018-07-24T09:33:21.114Z,30.67
2018-07-24T09:34:21.152Z,30.57
2018-07-24T09:35:21.186Z,30.87
2018-07-24T09:37:21.264Z,31.9
2018-07-24T09:38:21.300Z,32.68
2018-07-24T09:39:21.336Z,32.73
2018-07-24T09:40:21.403Z,31.88
2018-07-24T09:41:21.417Z,32.29
2018-07-24T09:42:21.453Z,32.95
2018-07-24T09:43:21.486Z,32.85
2018-07-24T09:44:21.523Z,31.88
2018-07-24T09:45:21.561Z,31.6
2018-07-24T09:46:36.261Z,33.08
2018-07-24T09:47:21.634Z,33.33
2018-07-24T09:48:21.671Z,34.59
2018-07-24T09:49:21.704Z,34.67
2018-07-24T09:50:21.749Z,35.96
2018-07-24T09:51:21.781Z,36.22
2018-07-24T09:52:21.819Z,37.85
2018-07-24T09:53:21.852Z,38.98
2018-07-24T09:54:21.635Z,39.43
2018-07-24T09:55:21.920Z,41.08
2018-07-24T09:56:22.061Z,41.92
2018-07-24T09:58:21.771Z,43.24
2018-07-24T09:59:22.237Z,41.31
2018-07-24T10:00:21.843Z,38.92
2018-07-24T10:01:21.876Z,37.74
2018-07-24T10:02:36.836Z,36.22
2018-07-24T10:03:21.947Z,35.46
2018-07-24T10:04:22.240Z,34.67
2018-07-24T10:05:22.292Z,33.53
2018-07-24T10:06:22.317Z,33.06
2018-07-24T10:07:22.360Z,32.39
2018-07-24T10:08:22.381Z,31.05
2018-07-24T10:09:22.424Z,30.79
2018-07-24T10:11:22.330Z,30.49
2018-07-24T10:12:22.531Z,30.18
2018-07-24T10:13:23.204Z,30.49
2018-07-24T10:14:22.591Z,30.3
2018-07-24T10:15:22.629Z,31.07
2018-07-24T10:16:22.685Z,30.94
2018-07-24T10:17:37.365Z,32.5
2018-07-24T10:18:22.738Z,32.97
2018-07-24T10:19:22.770Z,34.23
2018-07-24T10:20:22.805Z,34.59
2018-07-24T10:21:22.841Z,34.1
2018-07-24T10:22:23.107Z,34.59
2018-07-24T10:23:22.908Z,35.56
2018-07-24T10:24:23.034Z,35.84
2018-07-24T10:25:22.980Z,36.9
2018-07-24T10:26:23.022Z,37.82
2018-07-24T10:27:23.051Z,38.56
2018-07-24T10:28:23.087Z,38.85
2018-07-24T10:29:23.120Z,39.74
2018-07-24T10:30:23.240Z,39.23
2018-07-24T10:31:22.934Z,38.66
2018-07-24T10:32:23.223Z,38.31
2018-07-24T10:33:23.259Z,38.78
2018-07-24T10:34:23.291Z,39.54
2018-07-24T10:35:23.325Z,38.46
2018-07-24T10:36:23.439Z,37.92
2018-07-24T10:37:23.393Z,37.84
2018-07-24T10:38:23.426Z,36.47
2018-07-24T10:39:23.461Z,36.59
2018-07-24T10:40:23.239Z,37.26
2018-07-24T10:41:23.533Z,36.55
2018-07-24T10:43:23.604Z,36.59
2018-07-24T10:44:23.633Z,36.69
2018-07-24T10:45:23.666Z,38.42
2018-07-24T10:46:23.705Z,38.46
2018-07-24T10:47:23.736Z,39.54
2018-07-24T10:48:23.776Z,39.43
2018-07-24T10:49:38.470Z,39.7
2018-07-24T10:50:23.841Z,38.8
2018-07-24T10:51:23.875Z,38.52
2018-07-24T10:52:23.921Z,36.49
2018-07-24T10:53:23.944Z,35.64
2018-07-24T10:54:23.720Z,36.05
2018-07-24T10:55:24.017Z,35.48
2018-07-24T10:56:24.044Z,34.91
2018-07-24T10:58:24.123Z,34.23
2018-07-24T11:00:24.184Z,35.4
2018-07-24T11:01:24.218Z,36.43
2018-07-24T11:02:23.995Z,38.66
2018-07-24T11:03:24.286Z,40.13
2018-07-24T11:04:24.319Z,41.17
2018-07-24T11:05:39.019Z,41.74
2018-07-24T11:06:24.395Z,42.48
2018-07-24T11:07:24.424Z,42.66
2018-07-24T11:08:24.459Z,43.52
2018-07-24T11:09:24.490Z,44.1
2018-07-24T11:10:24.524Z,44.01
2018-07-24T11:11:24.560Z,44.67
2018-07-24T11:12:24.590Z,44.28
2018-07-24T11:13:24.628Z,44.09
2018-07-24T11:14:24.657Z,43.15
2018-07-24T11:15:24.691Z,42.88
2018-07-24T11:16:24.728Z,42.99
2018-07-24T11:17:24.760Z,42.41
2018-07-24T11:18:24.790Z,41.74
2018-07-24T11:19:24.828Z,42.03
2018-07-24T11:20:24.862Z,41.05
2018-07-24T11:21:39.558Z,39.9
2018-07-24T11:23:24.958Z,39.92
2018-07-24T11:24:24.994Z,41.29
2018-07-24T11:25:24.765Z,40.92
2018-07-24T11:26:25.061Z,39.06
2018-07-24T11:27:25.165Z,38.88
2018-07-24T11:28:25.222Z,39.56
2018-07-24T11:29:25.163Z,40.23
2018-07-24T11:30:25.186Z,40.61
2018-07-24T11:31:25.218Z,41.09
2018-07-24T11:32:25.254Z,40.9
2018-07-24T11:33:25.456Z,40.63
2018-07-24T11:34:25.322Z,40.45
2018-07-24T11:35:25.441Z,39.98
2018-07-24T11:37:40.082Z,40.53
2018-07-24T11:38:25.465Z,39.72
2018-07-24T11:39:25.503Z,40.31
2018-07-24T11:40:25.258Z,40.06
2018-07-24T11:42:25.582Z,42.6
2018-07-24T11:44:25.648Z,43.66
2018-07-24T11:45:25.684Z,43.24
2018-07-24T11:46:25.470Z,44.05
2018-07-24T11:47:25.795Z,43.66
2018-07-24T11:48:25.785Z,43.07
2018-07-24T11:49:25.809Z,42.31
2018-07-24T11:50:25.846Z,42.82
2018-07-24T11:51:25.931Z,42.62
2018-07-24T11:52:40.573Z,42.8
2018-07-24T11:53:25.943Z,42.99
2018-07-24T11:54:25.977Z,42.62
2018-07-24T11:55:25.748Z,42.31
2018-07-24T11:56:26.041Z,41.84
2018-07-24T11:57:26.073Z,42.33
2018-07-24T11:58:26.106Z,42.52
2018-07-24T11:59:25.881Z,42.52
2018-07-24T12:01:26.201Z,42.48
2018-07-24T12:02:26.234Z,42.97
2018-07-24T12:03:26.342Z,43.56
2018-07-24T12:04:26.298Z,43.38
2018-07-24T12:05:26.074Z,42.99
2018-07-24T12:06:26.364Z,43.09
2018-07-24T12:07:26.396Z,43.76
2018-07-24T12:08:26.429Z,44.62
2018-07-24T12:09:26.461Z,45.67
2018-07-24T12:10:26.235Z,45.18
2018-07-24T12:11:26.267Z,45.55
2018-07-24T12:13:26.588Z,44.96
2018-07-24T12:14:26.382Z,44.79
2018-07-24T12:15:26.655Z,42.95
2018-07-24T12:16:26.427Z,42.99
2018-07-24T12:18:26.749Z,42.9
2018-07-24T12:19:26.822Z,41.84
2018-07-24T12:20:26.814Z,42.45
2018-07-24T12:21:26.848Z,43.29
2018-07-24T12:22:26.881Z,43.77
2018-07-24T12:23:26.910Z,42.6
2018-07-24T12:24:41.605Z,43.68
2018-07-24T12:25:26.972Z,43.58
2018-07-24T12:26:27.004Z,43.38
2018-07-24T12:27:27.039Z,44.17
2018-07-24T12:28:27.068Z,44.54
2018-07-24T12:29:27.102Z,44.03
2018-07-24T12:30:27.135Z,44.03
2018-07-24T12:31:27.165Z,44.69
2018-07-24T12:32:27.202Z,45.06
2018-07-24T12:35:27.296Z,45.75
2018-07-24T12:36:27.074Z,45.55
2018-07-24T12:37:27.365Z,45.55
2018-07-24T12:38:27.387Z,46.23
2018-07-24T12:39:27.167Z,44.89
2018-07-24T12:40:42.117Z,43.44
2018-07-24T12:41:27.485Z,43.09
2018-07-24T12:42:27.514Z,43.09
2018-07-24T12:43:27.587Z,43.02
2018-07-24T12:44:27.321Z,43.19
2018-07-24T12:45:27.611Z,42.99
2018-07-24T12:46:27.644Z,43.19
2018-07-24T12:47:27.674Z,43.98
2018-07-24T12:48:27.449Z,44.37
2018-07-24T12:49:27.759Z,43.41
2018-07-24T12:51:27.799Z,42.5
2018-07-24T12:52:27.606Z,42.91
2018-07-24T12:53:27.863Z,43.99
2018-07-24T12:54:27.637Z,44.54
2018-07-24T12:55:27.935Z,44.42
2018-07-24T12:56:42.621Z,45.01
2018-07-24T12:57:27.993Z,44.24
2018-07-24T12:58:28.034Z,44.73
2018-07-24T12:59:28.070Z,44.81
2018-07-24T13:00:28.086Z,44.89
2018-07-24T13:01:28.117Z,45.08
2018-07-24T13:02:28.163Z,45.84
2018-07-24T13:03:28.205Z,45.76
2018-07-24T13:04:28.210Z,45.28
2018-07-24T13:05:28.269Z,44.71
2018-07-24T13:07:28.320Z,43.88
2018-07-24T13:08:28.427Z,44.27
2018-07-24T13:09:28.371Z,44.56
2018-07-24T13:10:28.169Z,46.11
2018-07-24T13:11:28.456Z,45.86
2018-07-24T13:12:43.125Z,44.89
2018-07-24T13:13:28.494Z,45.59
2018-07-24T13:14:28.525Z,45.69
2018-07-24T13:15:28.556Z,46.62
2018-07-24T13:16:28.592Z,46.89
2018-07-24T13:17:28.618Z,47.27
2018-07-24T13:18:28.649Z,47.56
2018-07-24T13:19:28.721Z,46.8
2018-07-24T13:20:28.713Z,46.21
2018-07-24T13:21:28.750Z,46.53
2018-07-24T13:23:28.807Z,46.18
2018-07-24T13:24:28.840Z,44.64
2018-07-24T13:25:28.868Z,44.15
2018-07-24T13:26:28.947Z,44.66
2018-07-24T13:27:43.606Z,44.27
2018-07-24T13:28:28.963Z,43.38
2018-07-24T13:29:29.093Z,42.8
2018-07-24T13:30:28.774Z,42.72
2018-07-24T13:31:29.056Z,42.35
2018-07-24T13:34:29.150Z,42.43
2018-07-24T13:35:28.923Z,42.91
2018-07-24T13:36:28.954Z,42.72
2018-07-24T13:37:29.297Z,44.15
2018-07-24T13:38:29.273Z,44.89
2018-07-24T13:39:29.315Z,45.08
2018-07-24T13:40:29.337Z,43.93
2018-07-24T13:41:29.110Z,44.13
2018-07-24T13:42:29.398Z,44.32
2018-07-24T13:43:29.433Z,44.54
2018-07-24T13:44:29.461Z,43.27
2018-07-24T13:45:29.489Z,43.66
2018-07-24T13:46:29.533Z,43.95
2018-07-24T13:47:29.298Z,44.07
2018-07-24T13:48:29.588Z,44.27
2018-07-24T13:49:29.619Z,44.27
2018-07-24T13:50:29.649Z,44.56
2018-07-24T13:51:29.680Z,44.66
2018-07-24T13:52:29.716Z,44.81